Time;durP1;ratioP1;P1;durP2;ratioP2;P2;SDS_P1;SDS_P2;PMS_P1;PMS_P2;Temp;Humidity;BMP_temperature;BMP_pressure;BME280_temperature;BME280_humidity;BME280_pressure;Samples;Min_cycle;Max_cycle;Signal;HPM_P1;HPM_P2
2022/03/26 00:01:20;;;;;;;;;;;;;;;6.18;54.32324;103361;;;;-80
2022/03/26 00:06:20;;;;;;;;;;;;;;;6.11;54.42578;103368.3;;;;-81
2022/03/26 00:11:28;;;;;;;;;;;;;;;6.05;54.27344;103370.6;;;;-82
2022/03/26 00:16:26;;;;;;;;;;;;;;;6;54.32324;103367.6;;;;-81
2022/03/26 00:19:49;;;;;;;30.4;12.3;;;;;;;;;;;;;-80
2022/03/26 00:21:20;;;;;;;;;;;;;;;5.97;54.42969;103371.5;;;;-80
2022/03/26 00:26:20;;;;;;;;;;;;;;;5.89;54.32031;103366.2;;;;-81
2022/03/26 00:31:20;;;;;;;;;;;;;;;5.88;54.42871;103367.5;;;;-80
2022/03/26 00:36:20;;;;;;;;;;;;;;;5.84;54.43652;103372.2;;;;-81
2022/03/26 00:41:20;;;;;;;;;;;;;;;5.79;54.39746;103377.9;;;;-81
2022/03/26 00:46:20;;;;;;;;;;;;;;;5.76;54.43555;103371.2;;;;-81
2022/03/26 00:49:49;;;;;;;31.9;11.8;;;;;;;;;;;;;-81
2022/03/26 00:51:20;;;;;;;;;;;;;;;5.72;54.43066;103365.9;;;;-80
2022/03/26 00:56:20;;;;;;;;;;;;;;;5.67;54.29297;103367.5;;;;-80
2022/03/26 01:01:20;;;;;;;;;;;;;;;5.62;54.38574;103370;;;;-81
2022/03/26 01:06:20;;;;;;;;;;;;;;;5.57;54.40137;103373;;;;-82
2022/03/26 01:11:20;;;;;;;;;;;;;;;5.52;54.52734;103374.5;;;;-81
2022/03/26 01:16:20;;;;;;;;;;;;;;;5.47;54.47559;103371.3;;;;-81
2022/03/26 01:19:49;;;;;;;27;11.5;;;;;;;;;;;;;-80
2022/03/26 01:21:20;;;;;;;;;;;;;;;5.4;54.61133;103367.8;;;;-80
2022/03/26 01:26:21;;;;;;;;;;;;;;;5.35;54.82422;103365.7;;;;-80
2022/03/26 01:31:22;;;;;;;;;;;;;;;5.31;54.75488;103364.2;;;;-80
2022/03/26 01:36:22;;;;;;;;;;;;;;;5.27;54.87012;103367.1;;;;-80
2022/03/26 01:41:23;;;;;;;;;;;;;;;5.2;54.82813;103367;;;;-80
2022/03/26 01:46:20;;;;;;;;;;;;;;;5.16;54.88965;103367;;;;-82
2022/03/26 01:49:48;;;;;;;30.1;11.5;;;;;;;;;;;;;-80
2022/03/26 01:51:20;;;;;;;;;;;;;;;5.11;54.98242;103367.8;;;;-81
2022/03/26 01:56:21;;;;;;;;;;;;;;;5.06;54.97559;103365.1;;;;-80
2022/03/26 02:01:20;;;;;;;;;;;;;;;5.03;55.02637;103364.7;;;;-80
2022/03/26 02:06:25;;;;;;;;;;;;;;;4.98;55.06348;103364.4;;;;-79
2022/03/26 02:15:08;;;;;;;;;;;;;;;4.93;55.03516;103360.9;;;;-82
2022/03/26 02:19:48;;;;;;;29.8;11.6;;;;;;;;;;;;;-82
2022/03/26 02:20:09;;;;;;;;;;;;;;;4.87;55.06055;103355.3;;;;-81
2022/03/26 02:25:07;;;;;;;;;;;;;;;4.83;55.0332;103352.3;;;;-81
2022/03/26 02:30:07;;;;;;;;;;;;;;;4.79;55.16113;103347.3;;;;-83
2022/03/26 02:35:10;;;;;;;;;;;;;;;4.74;55.26367;103349.8;;;;-82
2022/03/26 02:40:11;;;;;;;;;;;;;;;4.7;55.19336;103348.8;;;;-81
2022/03/26 02:45:09;;;;;;;;;;;;;;;4.66;55.19824;103350.3;;;;-81
2022/03/26 02:49:49;;;;;;;31.2;11.9;;;;;;;;;;;;;-81
2022/03/26 02:50:08;;;;;;;;;;;;;;;4.61;55.32422;103348.6;;;;-81
2022/03/26 02:55:08;;;;;;;;;;;;;;;4.58;55.37598;103344;;;;-81
2022/03/26 03:00:07;;;;;;;;;;;;;;;4.52;55.42285;103341;;;;-81
2022/03/26 03:05:08;;;;;;;;;;;;;;;4.47;55.46094;103341.5;;;;-81
2022/03/26 03:10:10;;;;;;;;;;;;;;;4.44;55.54395;103341.4;;;;-81
2022/03/26 03:15:07;;;;;;;;;;;;;;;4.39;55.62598;103347.7;;;;-81
2022/03/26 03:19:47;;;;;;;29.2;11.2;;;;;;;;;;;;;-82
2022/03/26 03:20:11;;;;;;;;;;;;;;;4.36;55.61035;103345.2;;;;-82
2022/03/26 03:25:14;;;;;;;;;;;;;;;4.32;55.51758;103342.5;;;;-82
2022/03/26 03:30:10;;;;;;;;;;;;;;;4.27;55.62109;103347.1;;;;-81
2022/03/26 03:35:08;;;;;;;;;;;;;;;4.24;55.60547;103346.6;;;;-82
2022/03/26 03:40:08;;;;;;;;;;;;;;;4.2;55.83203;103340.2;;;;-82
2022/03/26 03:45:09;;;;;;;;;;;;;;;4.17;55.89453;103342.4;;;;-81
2022/03/26 03:49:56;;;;;;;32.9;11.6;;;;;;;;;;;;;-83
2022/03/26 03:50:10;;;;;;;;;;;;;;;4.12;55.91992;103342.1;;;;-84
2022/03/26 03:55:15;;;;;;;;;;;;;;;4.09;55.89453;103347.4;;;;-82
2022/03/26 04:00:07;;;;;;;;;;;;;;;4.03;56.07422;103344.8;;;;-82
2022/03/26 04:05:13;;;;;;;;;;;;;;;3.99;56.05664;103341.3;;;;-81
2022/03/26 04:10:22;;;;;;;;;;;;;;;3.97;56.08789;103345.2;;;;-81
2022/03/26 04:15:14;;;;;;;;;;;;;;;3.94;56.05078;103346.5;;;;-82
2022/03/26 04:19:49;;;;;;;26.1;10.1;;;;;;;;;;;;;-81
2022/03/26 04:20:08;;;;;;;;;;;;;;;3.89;55.95605;103340.6;;;;-84
2022/03/26 04:25:07;;;;;;;;;;;;;;;3.87;56.15039;103340.2;;;;-82
2022/03/26 04:30:08;;;;;;;;;;;;;;;3.83;56.16699;103344.8;;;;-82
2022/03/26 04:35:13;;;;;;;;;;;;;;;3.82;56.2207;103341.2;;;;-82
2022/03/26 04:40:11;;;;;;;;;;;;;;;3.75;56.20117;103339.3;;;;-84
2022/03/26 04:45:14;;;;;;;;;;;;;;;3.71;56.16309;103334.7;;;;-84
2022/03/26 04:49:51;;;;;;;26.7;10;;;;;;;;;;;;;-84
2022/03/26 04:50:07;;;;;;;;;;;;;;;3.69;56.31348;103329.6;;;;-83
2022/03/26 04:55:13;;;;;;;;;;;;;;;3.67;56.31055;103334.2;;;;-83
2022/03/26 05:00:09;;;;;;;;;;;;;;;3.65;56.51758;103334.6;;;;-85
2022/03/26 05:05:09;;;;;;;;;;;;;;;3.62;56.41504;103332.9;;;;-84
2022/03/26 05:10:09;;;;;;;;;;;;;;;3.59;56.34473;103328.8;;;;-84
2022/03/26 05:15:08;;;;;;;;;;;;;;;3.56;56.34082;103329.5;;;;-84
2022/03/26 05:24:57;;;;;;;;;;;;;;;3.5;56.21289;103326.9;;;;-79
2022/03/26 05:29:56;;;;;;;;;;;;;;;3.48;56.35254;103331;;;;-80
2022/03/26 05:34:59;;;;;;;;;;;;;;;3.46;56.19531;103334;;;;-81
2022/03/26 05:39:56;;;;;;;;;;;;;;;3.45;56.37012;103334.3;;;;-79
2022/03/26 05:44:56;;;;;;;;;;;;;;;3.44;56.19434;103338;;;;-79
2022/03/26 05:49:45;;;;;;;31;10.6;;;;;;;;;;;;;-81
2022/03/26 05:49:58;;;;;;;;;;;;;;;3.41;56.28906;103342.9;;;;-81
2022/03/26 05:54:56;;;;;;;;;;;;;;;3.44;56.19238;103347.1;;;;-79
2022/03/26 05:59:55;;;;;;;;;;;;;;;3.47;56.07715;103355.7;;;;-81
2022/03/26 06:05:00;;;;;;;;;;;;;;;3.49;55.99316;103362.6;;;;-81
2022/03/26 06:09:55;;;;;;;;;;;;;;;3.53;55.97559;103361.1;;;;-79
2022/03/26 06:14:55;;;;;;;;;;;;;;;3.59;55.9043;103369.2;;;;-83
2022/03/26 06:19:45;;;;;;;31;11.9;;;;;;;;;;;;;-79
2022/03/26 06:19:55;;;;;;;;;;;;;;;3.7;55.89941;103374.9;;;;-79
2022/03/26 06:24:59;;;;;;;;;;;;;;;3.92;55.50977;103374.2;;;;-80
2022/03/26 06:29:56;;;;;;;;;;;;;;;4.23;55.12109;103377.6;;;;-79
2022/03/26 06:34:56;;;;;;;;;;;;;;;4.38;55.33887;103376.7;;;;-81
2022/03/26 06:39:58;;;;;;;;;;;;;;;4.71;54.30371;103383.9;;;;-80
2022/03/26 06:44:59;;;;;;;;;;;;;;;4.94;54.39941;103392;;;;-81
2022/03/26 06:49:46;;;;;;;36.8;14.1;;;;;;;;;;;;;-79
2022/03/26 06:49:59;;;;;;;;;;;;;;;5.2;53.75977;103391.9;;;;-78
2022/03/26 06:54:58;;;;;;;;;;;;;;;5.45;53.40527;103393.1;;;;-83
2022/03/26 06:59:55;;;;;;;;;;;;;;;5.66;53.38672;103398.5;;;;-81
2022/03/26 07:04:55;;;;;;;;;;;;;;;5.86;53.1582;103403;;;;-79
2022/03/26 07:09:57;;;;;;;;;;;;;;;6.08;52.94336;103402.5;;;;-78
2022/03/26 07:14:55;;;;;;;;;;;;;;;6.33;53.13867;103410.7;;;;-80
2022/03/26 07:19:47;;;;;;;43.3;17.5;;;;;;;;;;;;;-81
2022/03/26 07:19:58;;;;;;;;;;;;;;;6.54;52.9668;103415.7;;;;-77
2022/03/26 07:24:55;;;;;;;;;;;;;;;6.84;53.45703;103415.3;;;;-80
2022/03/26 07:29:57;;;;;;;;;;;;;;;7.15;53.00684;103412.6;;;;-81
2022/03/26 07:34:57;;;;;;;;;;;;;;;7.44;52.58887;103418.5;;;;-80
2022/03/26 07:39:55;;;;;;;;;;;;;;;7.77;52.3418;103421;;;;-81
2022/03/26 07:44:58;;;;;;;;;;;;;;;8.2;52.21582;103418.2;;;;-79
2022/03/26 07:49:44;;;;;;;60.7;23.1;;;;;;;;;;;;;-81
2022/03/26 07:49:55;;;;;;;;;;;;;;;8.6;51.75293;103424.7;;;;-78
2022/03/26 07:54:57;;;;;;;;;;;;;;;9.02;51.61426;103432.9;;;;-82
2022/03/26 08:00:00;;;;;;;;;;;;;;;9.51;52.2832;103436.8;;;;-80
2022/03/26 08:10:12;;;;;;;;;;;;;;;10.54;52.10645;103442.1;;;;-81
2022/03/26 08:15:05;;;;;;;;;;;;;;;11.05;51.60938;103444.2;;;;-79
2022/03/26 08:19:52;;;;;;;67.4;26.8;;;;;;;;;;;;;-81
2022/03/26 08:20:07;;;;;;;;;;;;;;;11.76;51.42383;103444.4;;;;-82
2022/03/26 08:25:05;;;;;;;;;;;;;;;12.29;50.64746;103450.1;;;;-81
2022/03/26 08:29:55;;;;;;;;;;;;;;;12.75;50.12695;103452;;;;-81
2022/03/26 08:39:40;;;;;;;;;;;;;;;13.79;48.9873;103456.6;;;;-81
2022/03/26 08:44:59;;;;;;;;;;;;;;;14.28;48.52246;103455.6;;;;-81
2022/03/26 08:49:44;;;;;;;;;;;;;;;14.73;48.04297;103460.6;;;;-81
2022/03/26 08:49:54;;;;;;;70.7;29.5;;;;;;;;;;;;;-81
2022/03/26 08:54:36;;;;;;;;;;;;;;;15.13;47.63477;103458.8;;;;-81
2022/03/26 08:59:38;;;;;;;;;;;;;;;15.51;47.49609;103454.3;;;;-82
2022/03/26 09:04:41;;;;;;;;;;;;;;;15.9;46.76855;103466;;;;-80
2022/03/26 09:09:36;;;;;;;;;;;;;;;16.32;46.66504;103464.7;;;;-80
2022/03/26 09:14:44;;;;;;;;;;;;;;;16.67;46.54297;103466.5;;;;-80
2022/03/26 09:19:36;;;;;;;;;;;;;;;16.9;45.84277;103463.2;;;;-82
2022/03/26 09:19:47;;;;;;;74.3;30.7;;;;;;;;;;;;;-80
2022/03/26 09:24:39;;;;;;;;;;;;;;;17.19;45.23633;103460.7;;;;-82
2022/03/26 09:29:36;;;;;;;;;;;;;;;17.55;44.65918;103458.3;;;;-82
2022/03/26 09:34:39;;;;;;;;;;;;;;;17.87;43.9873;103455.1;;;;-83
2022/03/26 09:39:41;;;;;;;;;;;;;;;18.18;43.9502;103456.9;;;;-83
2022/03/26 09:44:41;;;;;;;;;;;;;;;18.43;43.64453;103448.5;;;;-82
2022/03/26 09:49:37;;;;;;;;;;;;;;;18.67;43.23633;103450.3;;;;-80
2022/03/26 09:49:49;;;;;;;65.7;28.5;;;;;;;;;;;;;-82
2022/03/26 09:54:38;;;;;;;;;;;;;;;19.01;42.75391;103443.2;;;;-82
2022/03/26 09:59:39;;;;;;;;;;;;;;;19.33;42.52344;103440.1;;;;-82
2022/03/26 10:04:41;;;;;;;;;;;;;;;19.6;42.26367;103438.9;;;;-81
2022/03/26 10:09:40;;;;;;;;;;;;;;;19.8;42.37402;103439.4;;;;-82
2022/03/26 10:14:49;;;;;;;;;;;;;;;20;41.91309;103433.8;;;;-80
2022/03/26 10:19:39;;;;;;;;;;;;;;;20.24;41.87793;103438.1;;;;-83
2022/03/26 10:19:52;;;;;;;56.3;25.6;;;;;;;;;;;;;-81
2022/03/26 10:24:36;;;;;;;;;;;;;;;20.38;41.77637;103435;;;;-81
2022/03/26 10:29:46;;;;;;;;;;;;;;;20.55;41.67773;103435.4;;;;-84
2022/03/26 10:34:36;;;;;;;;;;;;;;;20.77;43.58789;103430.7;;;;-83
2022/03/26 10:39:39;;;;;;;;;;;;;;;21.02;41.29785;103427.5;;;;-82
2022/03/26 10:44:36;;;;;;;;;;;;;;;21.24;43.41797;103421.2;;;;-83
2022/03/26 10:49:37;;;;;;;;;;;;;;;21.47;45.5957;103418.8;;;;-84
2022/03/26 10:49:54;;;;;;;37.1;17.5;;;;;;;;;;;;;-81
2022/03/26 10:54:37;;;;;;;;;;;;;;;21.76;48.53711;103416.1;;;;-83
2022/03/26 10:59:39;;;;;;;;;;;;;;;22.07;48.67285;103412.1;;;;-83
2022/03/26 11:04:36;;;;;;;;;;;;;;;22.44;47.7373;103416.1;;;;-83
2022/03/26 11:09:39;;;;;;;;;;;;;;;22.58;48.79688;103410.9;;;;-83
2022/03/26 11:14:38;;;;;;;;;;;;;;;22.86;48.18555;103411;;;;-83
2022/03/26 11:19:48;;;;;;;;;;;;;;;23.18;47.54004;103403.5;;;;-82
2022/03/26 11:20:09;;;;;;;29.5;13.9;;;;;;;;;;;;;-82
2022/03/26 11:24:52;;;;;;;;;;;;;;;23.35;47.52441;103405.6;;;;-82
2022/03/26 11:29:49;;;;;;;;;;;;;;;23.44;47.82129;103397.9;;;;-84
2022/03/26 11:34:46;;;;;;;;;;;;;;;23.55;47.30371;103397.1;;;;-82
2022/03/26 11:39:46;;;;;;;;;;;;;;;23.68;47.97363;103395.9;;;;-84
2022/03/26 11:44:37;;;;;;;;;;;;;;;23.92;47.16895;103399;;;;-85
2022/03/26 11:54:38;;;;;;;;;;;;;;;24.19;47.08301;103395.9;;;;-85
2022/03/26 11:59:42;;;;;;;;;;;;;;;24.29;46.18262;103395.8;;;;-86
2022/03/26 12:04:49;;;;;;;;;;;;;;;24.37;46.40918;103394.3;;;;-83
2022/03/26 12:09:41;;;;;;;;;;;;;;;24.48;45.46484;103389.4;;;;-85
2022/03/26 12:14:48;;;;;;;;;;;;;;;24.59;45.75195;103378.1;;;;-83
2022/03/26 12:19:44;;;;;;;;;;;;;;;24.7;45.3125;103376.4;;;;-83
2022/03/26 12:20:17;;;;;;;27.1;13.6;;;;;;;;;;;;;-83
2022/03/26 12:24:36;;;;;;;;;;;;;;;24.78;44.92773;103374.8;;;;-84
2022/03/26 12:29:41;;;;;;;;;;;;;;;24.82;44.36621;103363.9;;;;-84
2022/03/26 12:44:04;;;;;;;;;;;;;;;24.87;44.61426;103361.7;;;;-82
2022/03/26 12:48:51;;;;;;;;;;;;;;;24.85;44.32324;103352.9;;;;-84
2022/03/26 12:50:11;;;;;;;31.2;15.8;;;;;;;;;;;;;-82
2022/03/26 12:53:50;;;;;;;;;;;;;;;24.8;45.3584;103360.6;;;;-83
2022/03/26 12:59:03;;;;;;;;;;;;;;;24.8;45.03418;103359.2;;;;-83
2022/03/26 13:03:54;;;;;;;;;;;;;;;24.74;44.88965;103361.6;;;;-82
2022/03/26 13:08:55;;;;;;;;;;;;;;;24.69;45.26563;103364;;;;-82
2022/03/26 13:13:52;;;;;;;;;;;;;;;24.71;45.78711;103354.9;;;;-82
2022/03/26 13:18:55;;;;;;;;;;;;;;;24.75;44.81055;103346;;;;-83
2022/03/26 13:20:13;;;;;;;31;15.9;;;;;;;;;;;;;-85
2022/03/26 13:24:04;;;;;;;;;;;;;;;24.72;45.8457;103348.6;;;;-85
2022/03/26 13:28:50;;;;;;;;;;;;;;;24.74;45.8252;103352.7;;;;-84
2022/03/26 13:33:56;;;;;;;;;;;;;;;24.74;44.43848;103355.1;;;;-84
2022/03/26 13:38:51;;;;;;;;;;;;;;;24.68;44.13281;103353.7;;;;-84
2022/03/26 13:43:53;;;;;;;;;;;;;;;24.62;43.54883;103355.7;;;;-85
2022/03/26 13:50:17;;;;;;;27.1;12.9;;;;;;;;;;;;;-77
2022/03/26 13:51:58;;;;;;;;;;;;;;;24.55;43.21973;103345.5;;;;-77
2022/03/26 13:56:59;;;;;;;;;;;;;;;24.49;44.46094;103345.7;;;;-77
2022/03/26 14:01:58;;;;;;;;;;;;;;;24.44;44.30566;103344.2;;;;-77
2022/03/26 14:06:58;;;;;;;;;;;;;;;24.43;43.80859;103341.5;;;;-76
2022/03/26 14:11:58;;;;;;;;;;;;;;;24.37;43.66406;103336.6;;;;-77
2022/03/26 14:17:00;;;;;;;;;;;;;;;24.31;43.0918;103336.2;;;;-78
2022/03/26 14:20:19;;;;;;;15.6;9;;;;;;;;;;;;;-77
2022/03/26 14:21:57;;;;;;;;;;;;;;;24.17;43.9209;103333.3;;;;-76
2022/03/26 14:26:58;;;;;;;;;;;;;;;24.08;43.83203;103324.8;;;;-78
2022/03/26 14:31:57;;;;;;;;;;;;;;;24;44.6543;103320.5;;;;-79
2022/03/26 14:36:58;;;;;;;;;;;;;;;23.99;44.7793;103321.5;;;;-78
2022/03/26 14:41:57;;;;;;;;;;;;;;;23.98;43.85742;103317.5;;;;-75
2022/03/26 14:46:58;;;;;;;;;;;;;;;23.88;44.07813;103317.8;;;;-78
2022/03/26 14:50:23;;;;;;;15.7;8.1;;;;;;;;;;;;;-76
2022/03/26 14:51:57;;;;;;;;;;;;;;;23.76;43.63965;103316;;;;-76
2022/03/26 14:56:57;;;;;;;;;;;;;;;23.63;43.71875;103317.7;;;;-79
2022/03/26 15:01:59;;;;;;;;;;;;;;;23.5;43.20996;103316.2;;;;-75
2022/03/26 15:06:57;;;;;;;;;;;;;;;23.35;43.10449;103309.6;;;;-76
2022/03/26 15:11:57;;;;;;;;;;;;;;;23.19;42.71973;103305.4;;;;-76
2022/03/26 15:17:02;;;;;;;;;;;;;;;23.02;42.7041;103300.5;;;;-77
2022/03/26 15:20:27;;;;;;;11.5;5.3;;;;;;;;;;;;;-77
2022/03/26 15:22:00;;;;;;;;;;;;;;;22.9;42.2666;103298.7;;;;-76
2022/03/26 15:26:57;;;;;;;;;;;;;;;22.76;42.5293;103296.1;;;;-78
2022/03/26 15:31:58;;;;;;;;;;;;;;;22.62;42.44727;103284.8;;;;-78
2022/03/26 15:36:57;;;;;;;;;;;;;;;22.48;42.58301;103282;;;;-78
2022/03/26 15:41:59;;;;;;;;;;;;;;;22.38;42.33301;103283.4;;;;-77
2022/03/26 15:46:57;;;;;;;;;;;;;;;22.22;42.06348;103284.1;;;;-78
2022/03/26 15:50:31;;;;;;;7.5;4.1;;;;;;;;;;;;;-77
2022/03/26 15:51:59;;;;;;;;;;;;;;;21.96;43.46484;103285.8;;;;-77
2022/03/26 15:56:57;;;;;;;;;;;;;;;21.8;43.36816;103287.6;;;;-78
2022/03/26 16:01:57;;;;;;;;;;;;;;;21.61;43.72852;103292.8;;;;-76
2022/03/26 16:26:08;;;;;;;;;;;;;;;20.81;44.26855;103300.9;;;;-83
2022/03/26 16:31:01;;;;;;;;;;;;;;;20.64;44.29688;103296.9;;;;-84
2022/03/26 16:41:05;;;;;;;;;;;;;;;20.27;44.08887;103297.3;;;;-85
2022/03/26 16:46:10;;;;;;;;;;;;;;;20.05;44.24902;103307.5;;;;-86
2022/03/26 16:50:49;;;;;;;6.6;4.3;;;;;;;;;;;;;-85
2022/03/26 16:51:10;;;;;;;;;;;;;;;19.78;44.40527;103303.5;;;;-85
2022/03/26 16:56:09;;;;;;;;;;;;;;;19.55;44.55469;103307.3;;;;-85
2022/03/26 17:01:03;;;;;;;;;;;;;;;19.33;44.56543;103309.8;;;;-86
2022/03/26 17:09:33;;;;;;;;;;;;;;;18.84;44.83594;103320.2;;;;-81
2022/03/26 17:19:31;;;;;;;;;;;;;;;;;;;;;
2022/03/26 17:20:45;;;;;;;8.2;3.9;;;;;;;;;;;;;-83
2022/03/26 17:24:28;;;;;;;;;;;;;;;17.9;45.92383;103318.7;;;;-83
2022/03/26 17:29:28;;;;;;;;;;;;;;;17.58;46.13965;103323.4;;;;-83
2022/03/26 17:34:26;;;;;;;;;;;;;;;17.26;46.19727;103317.8;;;;-82
2022/03/26 17:39:28;;;;;;;;;;;;;;;16.97;46.12207;103320.4;;;;-83
2022/03/26 17:44:28;;;;;;;;;;;;;;;16.67;46.79395;103324.1;;;;-82
2022/03/26 17:49:30;;;;;;;;;;;;;;;16.39;46.61719;103332.6;;;;-83
2022/03/26 17:50:46;;;;;;;6.6;3.4;;;;;;;;;;;;;-82
2022/03/26 17:59:27;;;;;;;;;;;;;;;15.84;47.12402;103343.1;;;;-82
2022/03/26 18:04:29;;;;;;;;;;;;;;;15.55;47.82715;103342;;;;-82
2022/03/26 18:09:28;;;;;;;;;;;;;;;15.28;47.61816;103345.5;;;;-84
2022/03/26 18:14:31;;;;;;;;;;;;;;;15.06;47.70703;103342.5;;;;-83
2022/03/26 18:19:27;;;;;;;;;;;;;;;14.8;48.18555;103349.5;;;;-81
2022/03/26 18:20:44;;;;;;;6.1;3;;;;;;;;;;;;;-82
2022/03/26 18:24:26;;;;;;;;;;;;;;;14.56;48.23926;103348.3;;;;-81
2022/03/26 18:29:27;;;;;;;;;;;;;;;14.34;48.30469;103349.1;;;;-81
2022/03/26 18:34:25;;;;;;;;;;;;;;;14.12;48.5625;103348.8;;;;-82
2022/03/26 18:39:27;;;;;;;;;;;;;;;13.91;48.92188;103352.5;;;;-81
2022/03/26 18:44:34;;;;;;;;;;;;;;;13.71;49.18066;103360.2;;;;-83
2022/03/26 18:49:29;;;;;;;;;;;;;;;13.52;49.6875;103371.2;;;;-82
2022/03/26 18:50:46;;;;;;;4.6;2.7;;;;;;;;;;;;;-81
2022/03/26 18:54:28;;;;;;;;;;;;;;;13.33;50.0127;103372.8;;;;-82
2022/03/26 18:59:37;;;;;;;;;;;;;;;13.12;50.51758;103378.1;;;;-82
2022/03/26 19:04:29;;;;;;;;;;;;;;;12.96;51.13867;103386.9;;;;-85
2022/03/26 19:09:27;;;;;;;;;;;;;;;12.78;51.35352;103382.3;;;;-81
2022/03/26 19:14:29;;;;;;;;;;;;;;;12.61;51.90527;103386.6;;;;-80
2022/03/26 19:19:25;;;;;;;;;;;;;;;12.46;52.30273;103390.1;;;;-83
2022/03/26 19:20:46;;;;;;;6.6;3.2;;;;;;;;;;;;;-81
2022/03/26 19:24:26;;;;;;;;;;;;;;;12.35;52.47949;103398.7;;;;-82
2022/03/26 19:29:40;;;;;;;;;;;;;;;12.27;52.84082;103401.6;;;;-81
2022/03/26 19:34:29;;;;;;;;;;;;;;;12.21;53.16895;103400;;;;-84
2022/03/26 19:39:27;;;;;;;;;;;;;;;12.18;54.42969;103404.9;;;;-82
2022/03/26 19:44:26;;;;;;;;;;;;;;;12.14;54.01172;103401.4;;;;-84
2022/03/26 19:49:27;;;;;;;;;;;;;;;12.11;54.32031;103407;;;;-81
2022/03/26 19:50:52;;;;;;;7.1;3.4;;;;;;;;;;;;;-81
2022/03/26 19:54:25;;;;;;;;;;;;;;;12.09;54.20508;103410.3;;;;-81
2022/03/26 19:59:27;;;;;;;;;;;;;;;12.06;54.47168;103408.1;;;;-81
2022/03/26 20:04:30;;;;;;;;;;;;;;;12.05;54.81738;103406.1;;;;-83
2022/03/26 20:09:27;;;;;;;;;;;;;;;12.02;54.9248;103411.4;;;;-80
2022/03/26 20:14:25;;;;;;;;;;;;;;;11.98;55.18848;103404.3;;;;-81
2022/03/26 20:19:34;;;;;;;;;;;;;;;11.96;55.39746;103406.3;;;;-81
2022/03/26 20:20:55;;;;;;;4.1;2.2;;;;;;;;;;;;;-80
2022/03/26 20:24:33;;;;;;;;;;;;;;;11.92;55.52734;103410.1;;;;-81
2022/03/26 20:29:27;;;;;;;;;;;;;;;11.86;56.50391;103408.6;;;;-82
2022/03/26 20:34:26;;;;;;;;;;;;;;;11.82;56.4082;103404.1;;;;-82
2022/03/26 20:39:25;;;;;;;;;;;;;;;11.79;56.11426;103406.1;;;;-81
2022/03/26 20:44:30;;;;;;;;;;;;;;;11.77;56.97266;103407.6;;;;-81
2022/03/26 20:49:32;;;;;;;;;;;;;;;11.73;57.0459;103406.3;;;;-83
2022/03/26 20:51:04;;;;;;;2.1;1.2;;;;;;;;;;;;;-81
2022/03/26 20:54:39;;;;;;;;;;;;;;;11.71;57.20996;103414.1;;;;-83
2022/03/26 20:59:33;;;;;;;;;;;;;;;11.64;57.22266;103410.6;;;;-83
2022/03/26 21:04:30;;;;;;;;;;;;;;;11.64;57.07813;103417.4;;;;-83
2022/03/26 21:09:49;;;;;;;;;;;;;;;11.62;57.37695;103418.5;;;;-82
2022/03/26 21:14:26;;;;;;;;;;;;;;;11.58;56.96973;103429.1;;;;-79
2022/03/26 21:19:28;;;;;;;;;;;;;;;11.55;57.37891;103425;;;;-81
2022/03/26 21:20:53;;;;;;;2;1.1;;;;;;;;;;;;;-81
2022/03/26 21:24:26;;;;;;;;;;;;;;;11.51;57.06055;103428.6;;;;-81
2022/03/26 21:29:32;;;;;;;;;;;;;;;11.48;57.73828;103426.4;;;;-80
2022/03/26 21:34:31;;;;;;;;;;;;;;;11.44;57.68848;103424.7;;;;-81
2022/03/26 21:39:29;;;;;;;;;;;;;;;11.41;57.63965;103430.5;;;;-81
2022/03/26 21:44:27;;;;;;;;;;;;;;;11.37;57.45605;103431.7;;;;-82
2022/03/26 21:49:26;;;;;;;;;;;;;;;11.34;57.95313;103435.2;;;;-80
2022/03/26 21:50:52;;;;;;;2.2;1.1;;;;;;;;;;;;;-80
2022/03/26 21:54:28;;;;;;;;;;;;;;;11.3;58.12695;103440.5;;;;-78
2022/03/26 21:59:31;;;;;;;;;;;;;;;11.26;58.35645;103445.6;;;;-78
2022/03/26 22:04:28;;;;;;;;;;;;;;;11.21;58.5625;103442.4;;;;-75
2022/03/26 22:09:29;;;;;;;;;;;;;;;11.16;58.53125;103448.2;;;;-79
2022/03/26 22:14:28;;;;;;;;;;;;;;;11.1;59.25977;103440.9;;;;-79
2022/03/26 22:19:30;;;;;;;;;;;;;;;11.03;58.99316;103442.3;;;;-78
2022/03/26 22:20:53;;;;;;;3.9;2;;;;;;;;;;;;;-76
2022/03/26 22:24:25;;;;;;;;;;;;;;;10.98;58.75391;103437.6;;;;-77
2022/03/26 22:29:25;;;;;;;;;;;;;;;10.93;59.09277;103439.8;;;;-78
2022/03/26 22:34:30;;;;;;;;;;;;;;;10.88;59.07422;103440;;;;-77
2022/03/26 22:39:25;;;;;;;;;;;;;;;10.84;58.88965;103439.3;;;;-76
2022/03/26 22:44:25;;;;;;;;;;;;;;;10.79;59.39648;103448.1;;;;-77
2022/03/26 22:49:35;;;;;;;;;;;;;;;10.73;59.4668;103449.1;;;;-77
2022/03/26 22:50:57;;;;;;;4;2;;;;;;;;;;;;;-76
2022/03/26 22:54:27;;;;;;;;;;;;;;;10.68;59.53711;103447.3;;;;-77
2022/03/26 22:59:26;;;;;;;;;;;;;;;10.63;59.41992;103451.5;;;;-78
2022/03/26 23:04:26;;;;;;;;;;;;;;;10.58;59.5459;103447.7;;;;-79
2022/03/26 23:09:26;;;;;;;;;;;;;;;10.54;59.8291;103442;;;;-76
2022/03/26 23:14:26;;;;;;;;;;;;;;;10.48;59.74316;103447.1;;;;-78
2022/03/26 23:19:30;;;;;;;;;;;;;;;10.44;59.70508;103444;;;;-79
2022/03/26 23:21:02;;;;;;;3.8;2.2;;;;;;;;;;;;;-79
2022/03/26 23:24:40;;;;;;;;;;;;;;;10.39;59.67676;103444.6;;;;-80
2022/03/26 23:29:30;;;;;;;;;;;;;;;10.35;59.72656;103437.2;;;;-77
2022/03/26 23:34:31;;;;;;;;;;;;;;;10.3;59.76465;103442.5;;;;-77
2022/03/26 23:39:27;;;;;;;;;;;;;;;10.26;59.72461;103441.6;;;;-77
2022/03/26 23:44:33;;;;;;;;;;;;;;;10.21;59.98438;103444.1;;;;-78
2022/03/26 23:49:28;;;;;;;;;;;;;;;10.17;60.00098;103439.8;;;;-79
2022/03/26 23:50:58;;;;;;;3.6;2;;;;;;;;;;;;;-79
2022/03/26 23:54:30;;;;;;;;;;;;;;;10.12;60.24023;103437.1;;;;-78
2022/03/26 23:59:30;;;;;;;;;;;;;;;10.07;60.31055;103433.8;;;;-77
